sensor_id;sensor_type;location;lat;lon;timestamp;pressure;altitude;pressure_sealevel;temperature;humidity
8575;BME280;4325;42.520;27.448;2022-12-18T00:01:59;101701.94;;;15.69;100.00
8575;BME280;4325;42.520;27.448;2022-12-18T00:04:26;101709.09;;;15.65;100.00
8575;BME280;4325;42.520;27.448;2022-12-18T00:06:55;101700.88;;;15.50;100.00
8575;BME280;4325;42.520;27.448;2022-12-18T00:09:21;101695.91;;;15.37;100.00
8575;BME280;4325;42.520;27.448;2022-12-18T00:11:48;101711.41;;;15.28;100.00
8575;BME280;4325;42.520;27.448;2022-12-18T00:14:16;101729.59;;;15.24;100.00
8575;BME280;4325;42.520;27.448;2022-12-18T00:16:44;101740.09;;;15.17;100.00
8575;BME280;4325;42.520;27.448;2022-12-18T00:19:11;101750.88;;;15.13;100.00
8575;BME280;4325;42.520;27.448;2022-12-18T00:21:38;101753.91;;;15.07;100.00
8575;BME280;4325;42.520;27.448;2022-12-18T00:24:07;101757.50;;;14.97;100.00
8575;BME280;4325;42.520;27.448;2022-12-18T00:26:36;101763.28;;;14.91;100.00
8575;BME280;4325;42.520;27.448;2022-12-18T00:29:05;101747.84;;;14.85;100.00
8575;BME280;4325;42.520;27.448;2022-12-18T00:31:32;101733.50;;;14.78;100.00
8575;BME280;4325;42.520;27.448;2022-12-18T00:33:59;101731.84;;;14.72;100.00
8575;BME280;4325;42.520;27.448;2022-12-18T00:36:28;101752.25;;;14.71;100.00
8575;BME280;4325;42.520;27.448;2022-12-18T00:38:56;101750.03;;;14.73;100.00
8575;BME280;4325;42.520;27.448;2022-12-18T00:41:25;101772.09;;;14.83;100.00
8575;BME280;4325;42.520;27.448;2022-12-18T00:44:11;101767.97;;;14.85;100.00
8575;BME280;4325;42.520;27.448;2022-12-18T00:46:39;101779.53;;;14.87;100.00
8575;BME280;4325;42.520;27.448;2022-12-18T00:49:06;101792.53;;;14.82;100.00
8575;BME280;4325;42.520;27.448;2022-12-18T00:51:33;101789.19;;;14.70;100.00
8575;BME280;4325;42.520;27.448;2022-12-18T00:54:00;101785.03;;;14.57;100.00
8575;BME280;4325;42.520;27.448;2022-12-18T00:56:28;101793.81;;;14.49;100.00
8575;BME280;4325;42.520;27.448;2022-12-18T00:58:55;101774.25;;;14.40;100.00
8575;BME280;4325;42.520;27.448;2022-12-18T01:01:21;101741.19;;;14.35;100.00
8575;BME280;4325;42.520;27.448;2022-12-18T01:03:48;101734.28;;;14.33;100.00
8575;BME280;4325;42.520;27.448;2022-12-18T01:06:16;101737.84;;;14.38;100.00
8575;BME280;4325;42.520;27.448;2022-12-18T01:08:43;101738.16;;;14.42;100.00
8575;BME280;4325;42.520;27.448;2022-12-18T01:11:13;101741.75;;;14.47;100.00
8575;BME280;4325;42.520;27.448;2022-12-18T01:13:42;101738.19;;;14.52;100.00
8575;BME280;4325;42.520;27.448;2022-12-18T01:16:11;101740.66;;;14.59;100.00
8575;BME280;4325;42.520;27.448;2022-12-18T01:18:38;101745.88;;;14.65;100.00
8575;BME280;4325;42.520;27.448;2022-12-18T01:21:06;101745.63;;;14.67;100.00
8575;BME280;4325;42.520;27.448;2022-12-18T01:23:33;101755.00;;;14.66;100.00
8575;BME280;4325;42.520;27.448;2022-12-18T01:26:04;101759.97;;;14.69;100.00
8575;BME280;4325;42.520;27.448;2022-12-18T01:28:31;101761.63;;;14.70;100.00
8575;BME280;4325;42.520;27.448;2022-12-18T01:31:11;101770.16;;;14.68;100.00
8575;BME280;4325;42.520;27.448;2022-12-18T01:33:38;101775.13;;;14.71;100.00
8575;BME280;4325;42.520;27.448;2022-12-18T01:36:05;101782.56;;;14.76;100.00
8575;BME280;4325;42.520;27.448;2022-12-18T01:38:33;101798.03;;;14.82;100.00
8575;BME280;4325;42.520;27.448;2022-12-18T01:41:00;101806.31;;;14.87;100.00
8575;BME280;4325;42.520;27.448;2022-12-18T01:43:48;101811.84;;;14.87;100.00
8575;BME280;4325;42.520;27.448;2022-12-18T01:46:18;101818.97;;;14.88;100.00
8575;BME280;4325;42.520;27.448;2022-12-18T01:48:47;101825.59;;;14.82;100.00
8575;BME280;4325;42.520;27.448;2022-12-18T01:51:15;101822.28;;;14.80;100.00
8575;BME280;4325;42.520;27.448;2022-12-18T01:53:43;101822.56;;;14.78;100.00
8575;BME280;4325;42.520;27.448;2022-12-18T01:56:16;101829.44;;;14.71;100.00
8575;BME280;4325;42.520;27.448;2022-12-18T01:58:51;101828.59;;;14.70;100.00
8575;BME280;4325;42.520;27.448;2022-12-18T02:01:21;101837.69;;;14.71;100.00
8575;BME280;4325;42.520;27.448;2022-12-18T02:03:50;101828.03;;;14.63;100.00
8575;BME280;4325;42.520;27.448;2022-12-18T02:06:20;101816.75;;;14.60;100.00
8575;BME280;4325;42.520;27.448;2022-12-18T02:08:59;101824.72;;;14.61;100.00
8575;BME280;4325;42.520;27.448;2022-12-18T02:11:38;101835.72;;;14.51;100.00
8575;BME280;4325;42.520;27.448;2022-12-18T02:14:13;101839.84;;;14.53;100.00
8575;BME280;4325;42.520;27.448;2022-12-18T02:16:50;101842.38;;;14.55;100.00
8575;BME280;4325;42.520;27.448;2022-12-18T02:19:39;101842.59;;;14.48;100.00
8575;BME280;4325;42.520;27.448;2022-12-18T02:22:24;101813.66;;;14.46;100.00
8575;BME280;4325;42.520;27.448;2022-12-18T02:25:00;101803.44;;;14.41;100.00
8575;BME280;4325;42.520;27.448;2022-12-18T02:27:33;101800.16;;;14.39;100.00
8575;BME280;4325;42.520;27.448;2022-12-18T02:30:02;101796.00;;;14.37;100.00
8575;BME280;4325;42.520;27.448;2022-12-18T02:32:32;101808.94;;;14.31;100.00
8575;BME280;4325;42.520;27.448;2022-12-18T02:35:02;101813.63;;;14.31;100.00
8575;BME280;4325;42.520;27.448;2022-12-18T02:37:32;101802.28;;;14.27;100.00
8575;BME280;4325;42.520;27.448;2022-12-18T02:40:02;101805.56;;;14.24;100.00
8575;BME280;4325;42.520;27.448;2022-12-18T02:42:30;101808.31;;;14.24;100.00
8575;BME280;4325;42.520;27.448;2022-12-18T02:44:58;101811.34;;;14.23;100.00
8575;BME280;4325;42.520;27.448;2022-12-18T02:47:28;101804.19;;;14.22;100.00
8575;BME280;4325;42.520;27.448;2022-12-18T02:50:02;101806.69;;;14.23;100.00
8575;BME280;4325;42.520;27.448;2022-12-18T02:52:35;101815.19;;;14.22;100.00
8575;BME280;4325;42.520;27.448;2022-12-18T02:55:14;101826.22;;;14.22;100.00
8575;BME280;4325;42.520;27.448;2022-12-18T02:57:47;101819.31;;;14.19;100.00
8575;BME280;4325;42.520;27.448;2022-12-18T03:00:19;101824.81;;;14.19;100.00
8575;BME280;4325;42.520;27.448;2022-12-18T03:02:51;101820.66;;;14.12;100.00
8575;BME280;4325;42.520;27.448;2022-12-18T03:05:23;101808.84;;;14.11;100.00
8575;BME280;4325;42.520;27.448;2022-12-18T03:07:55;101795.59;;;14.08;100.00
8575;BME280;4325;42.520;27.448;2022-12-18T03:10:27;101785.13;;;14.05;100.00
8575;BME280;4325;42.520;27.448;2022-12-18T03:13:00;101790.91;;;14.04;100.00
8575;BME280;4325;42.520;27.448;2022-12-18T03:15:31;101792.81;;;14.03;100.00
8575;BME280;4325;42.520;27.448;2022-12-18T03:18:04;101807.66;;;13.97;100.00
8575;BME280;4325;42.520;27.448;2022-12-18T03:20:34;101813.94;;;13.87;100.00
8575;BME280;4325;42.520;27.448;2022-12-18T03:23:08;101823.53;;;13.75;100.00
8575;BME280;4325;42.520;27.448;2022-12-18T03:25:39;101825.38;;;13.64;100.00
8575;BME280;4325;42.520;27.448;2022-12-18T03:28:08;101825.63;;;13.58;100.00
8575;BME280;4325;42.520;27.448;2022-12-18T03:30:38;101824.72;;;13.47;100.00
8575;BME280;4325;42.520;27.448;2022-12-18T03:33:09;101836.97;;;13.35;100.00
8575;BME280;4325;42.520;27.448;2022-12-18T03:35:39;101845.16;;;13.24;100.00
8575;BME280;4325;42.520;27.448;2022-12-18T03:38:08;101857.69;;;13.10;100.00
8575;BME280;4325;42.520;27.448;2022-12-18T03:40:43;101859.50;;;13.05;100.00
8575;BME280;4325;42.520;27.448;2022-12-18T03:43:16;101859.75;;;12.98;100.00
8575;BME280;4325;42.520;27.448;2022-12-18T03:45:52;101866.84;;;12.94;100.00
8575;BME280;4325;42.520;27.448;2022-12-18T03:48:23;101878.97;;;12.98;100.00
8575;BME280;4325;42.520;27.448;2022-12-18T03:50:56;101885.56;;;12.97;100.00
8575;BME280;4325;42.520;27.448;2022-12-18T03:53:31;101888.25;;;12.92;100.00
8575;BME280;4325;42.520;27.448;2022-12-18T03:56:00;101896.00;;;12.95;100.00
8575;BME280;4325;42.520;27.448;2022-12-18T03:58:28;101907.03;;;13.00;100.00
8575;BME280;4325;42.520;27.448;2022-12-18T04:01:02;101894.69;;;13.03;100.00
8575;BME280;4325;42.520;27.448;2022-12-18T04:03:31;101908.84;;;13.11;100.00
8575;BME280;4325;42.520;27.448;2022-12-18T04:06:00;101911.00;;;13.09;100.00
8575;BME280;4325;42.520;27.448;2022-12-18T04:08:27;101913.19;;;13.07;100.00
8575;BME280;4325;42.520;27.448;2022-12-18T04:10:55;101920.38;;;13.08;100.00
8575;BME280;4325;42.520;27.448;2022-12-18T04:13:22;101923.69;;;13.10;100.00
8575;BME280;4325;42.520;27.448;2022-12-18T04:15:49;101927.25;;;13.11;100.00
8575;BME280;4325;42.520;27.448;2022-12-18T04:18:18;101924.19;;;13.07;100.00
8575;BME280;4325;42.520;27.448;2022-12-18T04:20:45;101939.66;;;13.13;100.00
8575;BME280;4325;42.520;27.448;2022-12-18T04:23:11;101947.59;;;13.10;100.00
8575;BME280;4325;42.520;27.448;2022-12-18T04:25:38;101944.00;;;13.09;100.00
8575;BME280;4325;42.520;27.448;2022-12-18T04:28:05;101945.13;;;13.08;100.00
8575;BME280;4325;42.520;27.448;2022-12-18T04:30:32;101945.16;;;13.13;100.00
8575;BME280;4325;42.520;27.448;2022-12-18T04:32:59;101951.81;;;13.17;100.00
8575;BME280;4325;42.520;27.448;2022-12-18T04:35:27;101963.94;;;13.21;100.00
8575;BME280;4325;42.520;27.448;2022-12-18T04:37:54;101960.94;;;13.23;100.00
8575;BME280;4325;42.520;27.448;2022-12-18T04:40:21;101973.59;;;13.24;100.00
8575;BME280;4325;42.520;27.448;2022-12-18T04:42:48;101977.75;;;13.27;100.00
8575;BME280;4325;42.520;27.448;2022-12-18T04:45:15;101978.00;;;13.25;100.00
8575;BME280;4325;42.520;27.448;2022-12-18T04:47:41;101973.91;;;13.28;100.00
8575;BME280;4325;42.520;27.448;2022-12-18T04:50:09;101981.59;;;13.26;100.00
8575;BME280;4325;42.520;27.448;2022-12-18T04:52:37;101995.91;;;13.28;100.00
8575;BME280;4325;42.520;27.448;2022-12-18T04:55:04;102004.53;;;13.36;100.00
8575;BME280;4325;42.520;27.448;2022-12-18T04:57:31;102005.97;;;13.44;100.00
8575;BME280;4325;42.520;27.448;2022-12-18T04:59:58;102005.50;;;13.52;100.00
8575;BME280;4325;42.520;27.448;2022-12-18T05:02:25;102011.59;;;13.54;100.00
8575;BME280;4325;42.520;27.448;2022-12-18T05:04:52;102021.84;;;13.63;100.00
8575;BME280;4325;42.520;27.448;2022-12-18T05:07:19;102029.88;;;13.65;100.00
8575;BME280;4325;42.520;27.448;2022-12-18T05:09:47;102035.38;;;13.65;100.00
8575;BME280;4325;42.520;27.448;2022-12-18T05:12:14;102040.34;;;13.68;100.00
8575;BME280;4325;42.520;27.448;2022-12-18T05:14:41;102044.72;;;13.64;100.00
8575;BME280;4325;42.520;27.448;2022-12-18T05:17:07;102052.41;;;13.62;100.00
8575;BME280;4325;42.520;27.448;2022-12-18T05:19:34;102054.78;;;13.53;100.00
8575;BME280;4325;42.520;27.448;2022-12-18T05:22:01;102067.13;;;13.51;100.00
8575;BME280;4325;42.520;27.448;2022-12-18T05:24:28;102063.81;;;13.49;100.00
8575;BME280;4325;42.520;27.448;2022-12-18T05:26:56;102061.91;;;13.49;100.00
8575;BME280;4325;42.520;27.448;2022-12-18T05:29:23;102065.47;;;13.50;100.00
8575;BME280;4325;42.520;27.448;2022-12-18T05:31:50;102060.50;;;13.47;100.00
8575;BME280;4325;42.520;27.448;2022-12-18T05:34:17;102072.28;;;13.42;100.00
8575;BME280;4325;42.520;27.448;2022-12-18T05:36:44;102070.88;;;13.40;100.00
8575;BME280;4325;42.520;27.448;2022-12-18T05:39:10;102065.59;;;13.33;100.00
8575;BME280;4325;42.520;27.448;2022-12-18T05:41:37;102076.19;;;13.24;100.00
8575;BME280;4325;42.520;27.448;2022-12-18T05:44:05;102086.13;;;13.26;100.00
8575;BME280;4325;42.520;27.448;2022-12-18T05:46:32;102096.28;;;13.25;100.00
8575;BME280;4325;42.520;27.448;2022-12-18T05:48:59;102109.13;;;13.19;100.00
8575;BME280;4325;42.520;27.448;2022-12-18T05:51:27;102111.81;;;13.14;100.00
8575;BME280;4325;42.520;27.448;2022-12-18T05:53:54;102106.13;;;13.04;100.00
8575;BME280;4325;42.520;27.448;2022-12-18T05:56:22;102117.34;;;12.98;100.00
8575;BME280;4325;42.520;27.448;2022-12-18T05:58:51;102132.09;;;12.92;100.00
8575;BME280;4325;42.520;27.448;2022-12-18T06:01:23;102129.03;;;12.88;100.00
8575;BME280;4325;42.520;27.448;2022-12-18T06:03:50;102135.66;;;12.92;100.00
8575;BME280;4325;42.520;27.448;2022-12-18T06:06:19;102136.66;;;13.03;100.00
8575;BME280;4325;42.520;27.448;2022-12-18T06:08:47;102142.00;;;13.09;100.00
8575;BME280;4325;42.520;27.448;2022-12-18T06:11:16;102149.50;;;13.14;100.00
8575;BME280;4325;42.520;27.448;2022-12-18T06:13:44;102158.91;;;13.18;100.00
8575;BME280;4325;42.520;27.448;2022-12-18T06:16:10;102157.13;;;13.29;100.00
8575;BME280;4325;42.520;27.448;2022-12-18T06:18:39;102169.78;;;13.30;100.00
8575;BME280;4325;42.520;27.448;2022-12-18T06:21:05;102168.78;;;13.36;100.00
8575;BME280;4325;42.520;27.448;2022-12-18T06:23:32;102171.25;;;13.37;100.00
8575;BME280;4325;42.520;27.448;2022-12-18T06:26:03;102179.84;;;13.41;99.98
8575;BME280;4325;42.520;27.448;2022-12-18T06:28:31;102174.34;;;13.41;99.34
8575;BME280;4325;42.520;27.448;2022-12-18T06:30:57;102178.16;;;13.40;98.70
8575;BME280;4325;42.520;27.448;2022-12-18T06:33:26;102185.84;;;13.38;98.03
8575;BME280;4325;42.520;27.448;2022-12-18T06:35:59;102186.09;;;13.36;97.02
8575;BME280;4325;42.520;27.448;2022-12-18T06:38:26;102190.13;;;13.29;95.62
8575;BME280;4325;42.520;27.448;2022-12-18T06:40:53;102207.38;;;13.24;96.25
8575;BME280;4325;42.520;27.448;2022-12-18T06:43:20;102210.81;;;13.14;96.63
8575;BME280;4325;42.520;27.448;2022-12-18T06:45:47;102212.69;;;13.09;96.95
8575;BME280;4325;42.520;27.448;2022-12-18T06:48:18;102228.81;;;13.05;96.83
8575;BME280;4325;42.520;27.448;2022-12-18T06:50:45;102225.03;;;13.06;97.25
8575;BME280;4325;42.520;27.448;2022-12-18T06:53:13;102235.75;;;13.08;98.00
8575;BME280;4325;42.520;27.448;2022-12-18T06:55:40;102253.81;;;13.04;98.53
8575;BME280;4325;42.520;27.448;2022-12-18T06:58:07;102250.72;;;13.00;97.60
8575;BME280;4325;42.520;27.448;2022-12-18T07:00:34;102260.00;;;12.94;96.39
8575;BME280;4325;42.520;27.448;2022-12-18T07:03:00;102260.00;;;12.94;97.12
8575;BME280;4325;42.520;27.448;2022-12-18T07:05:28;102260.97;;;12.88;97.51
8575;BME280;4325;42.520;27.448;2022-12-18T07:07:55;102258.31;;;12.93;98.09
8575;BME280;4325;42.520;27.448;2022-12-18T07:10:23;102274.50;;;13.06;98.48
8575;BME280;4325;42.520;27.448;2022-12-18T07:12:50;102288.44;;;13.16;96.90
8575;BME280;4325;42.520;27.448;2022-12-18T07:15:17;102295.16;;;13.26;95.63
8575;BME280;4325;42.520;27.448;2022-12-18T07:17:43;102304.66;;;13.35;94.03
8575;BME280;4325;42.520;27.448;2022-12-18T07:20:10;102301.91;;;13.35;92.39
8575;BME280;4325;42.520;27.448;2022-12-18T07:22:37;102311.31;;;13.39;91.27
8575;BME280;4325;42.520;27.448;2022-12-18T07:25:05;102308.47;;;13.34;88.86
8575;BME280;4325;42.520;27.448;2022-12-18T07:27:34;102310.06;;;13.30;86.83
8575;BME280;4325;42.520;27.448;2022-12-18T07:30:01;102313.00;;;13.23;86.39
8575;BME280;4325;42.520;27.448;2022-12-18T07:32:28;102325.84;;;13.17;85.29
8575;BME280;4325;42.520;27.448;2022-12-18T07:34:54;102324.91;;;13.12;84.48
8575;BME280;4325;42.520;27.448;2022-12-18T07:37:21;102327.34;;;13.08;84.34
8575;BME280;4325;42.520;27.448;2022-12-18T07:39:48;102340.00;;;13.09;84.24
8575;BME280;4325;42.520;27.448;2022-12-18T07:42:15;102347.25;;;13.15;84.00
8575;BME280;4325;42.520;27.448;2022-12-18T07:44:58;102352.19;;;13.13;83.09
8575;BME280;4325;42.520;27.448;2022-12-18T07:47:25;102352.34;;;13.23;83.78
8575;BME280;4325;42.520;27.448;2022-12-18T07:49:53;102350.00;;;13.32;83.10
8575;BME280;4325;42.520;27.448;2022-12-18T07:52:20;102356.69;;;13.53;82.45
8575;BME280;4325;42.520;27.448;2022-12-18T07:54:47;102362.84;;;13.60;80.66
8575;BME280;4325;42.520;27.448;2022-12-18T07:57:14;102375.19;;;13.57;79.11
8575;BME280;4325;42.520;27.448;2022-12-18T07:59:41;102372.50;;;13.62;78.97
8575;BME280;4325;42.520;27.448;2022-12-18T08:02:10;102374.50;;;13.67;76.08
8575;BME280;4325;42.520;27.448;2022-12-18T08:04:37;102378.91;;;13.68;74.61
8575;BME280;4325;42.520;27.448;2022-12-18T08:07:03;102381.16;;;13.71;74.12
8575;BME280;4325;42.520;27.448;2022-12-18T08:09:30;102388.00;;;13.68;74.70
8575;BME280;4325;42.520;27.448;2022-12-18T08:11:57;102399.75;;;13.64;74.15
8575;BME280;4325;42.520;27.448;2022-12-18T08:14:24;102398.03;;;13.58;75.33
8575;BME280;4325;42.520;27.448;2022-12-18T08:16:51;102404.03;;;13.55;75.48
8575;BME280;4325;42.520;27.448;2022-12-18T08:19:19;102406.69;;;13.50;76.02
8575;BME280;4325;42.520;27.448;2022-12-18T08:21:46;102414.97;;;13.50;76.39
8575;BME280;4325;42.520;27.448;2022-12-18T08:24:13;102417.72;;;13.50;75.20
8575;BME280;4325;42.520;27.448;2022-12-18T08:26:40;102405.09;;;13.54;75.81
8575;BME280;4325;42.520;27.448;2022-12-18T08:29:08;102406.03;;;13.59;74.57
8575;BME280;4325;42.520;27.448;2022-12-18T08:31:35;102411.34;;;13.66;74.50
8575;BME280;4325;42.520;27.448;2022-12-18T08:34:02;102407.53;;;13.67;73.21
8575;BME280;4325;42.520;27.448;2022-12-18T08:36:30;102402.09;;;13.72;72.98
8575;BME280;4325;42.520;27.448;2022-12-18T08:38:57;102394.50;;;13.79;72.62
8575;BME280;4325;42.520;27.448;2022-12-18T08:41:24;102400.00;;;13.79;70.92
8575;BME280;4325;42.520;27.448;2022-12-18T08:43:51;102411.44;;;13.71;70.92
8575;BME280;4325;42.520;27.448;2022-12-18T08:46:37;102412.38;;;13.60;69.77
8575;BME280;4325;42.520;27.448;2022-12-18T08:49:04;102395.53;;;13.40;70.22
8575;BME280;4325;42.520;27.448;2022-12-18T08:51:33;102402.34;;;13.20;71.74
8575;BME280;4325;42.520;27.448;2022-12-18T08:54:01;102403.84;;;13.11;72.87
8575;BME280;4325;42.520;27.448;2022-12-18T08:56:29;102413.53;;;13.02;73.77
8575;BME280;4325;42.520;27.448;2022-12-18T08:58:56;102411.44;;;12.93;73.89
8575;BME280;4325;42.520;27.448;2022-12-18T09:01:23;102416.75;;;12.83;73.66
8575;BME280;4325;42.520;27.448;2022-12-18T09:03:50;102417.38;;;12.73;74.80
8575;BME280;4325;42.520;27.448;2022-12-18T09:06:19;102422.53;;;12.70;74.86
8575;BME280;4325;42.520;27.448;2022-12-18T09:08:48;102410.50;;;12.59;75.83
8575;BME280;4325;42.520;27.448;2022-12-18T09:11:19;102415.66;;;12.55;76.16
8575;BME280;4325;42.520;27.448;2022-12-18T09:13:47;102418.84;;;12.64;76.52
8575;BME280;4325;42.520;27.448;2022-12-18T09:16:14;102411.88;;;12.73;75.81
8575;BME280;4325;42.520;27.448;2022-12-18T09:18:41;102423.81;;;12.79;75.14
8575;BME280;4325;42.520;27.448;2022-12-18T09:21:09;102429.06;;;12.80;75.11
8575;BME280;4325;42.520;27.448;2022-12-18T09:23:36;102431.31;;;12.83;76.91
8575;BME280;4325;42.520;27.448;2022-12-18T09:26:05;102432.59;;;12.92;77.03
8575;BME280;4325;42.520;27.448;2022-12-18T09:28:32;102421.91;;;13.07;77.63
8575;BME280;4325;42.520;27.448;2022-12-18T09:31:03;102423.34;;;13.27;76.84
8575;BME280;4325;42.520;27.448;2022-12-18T09:33:31;102424.38;;;13.37;74.33
8575;BME280;4325;42.520;27.448;2022-12-18T09:36:00;102432.38;;;13.39;73.23
8575;BME280;4325;42.520;27.448;2022-12-18T09:38:27;102436.22;;;13.38;73.10
8575;BME280;4325;42.520;27.448;2022-12-18T09:40:59;102433.47;;;13.38;73.78
8575;BME280;4325;42.520;27.448;2022-12-18T09:43:33;102435.72;;;13.41;75.12
8575;BME280;4325;42.520;27.448;2022-12-18T09:46:08;102426.63;;;13.40;74.10
8575;BME280;4325;42.520;27.448;2022-12-18T09:48:40;102432.72;;;13.42;73.92
8575;BME280;4325;42.520;27.448;2022-12-18T09:51:13;102432.88;;;13.36;71.58
8575;BME280;4325;42.520;27.448;2022-12-18T09:53:44;102435.47;;;13.26;71.92
8575;BME280;4325;42.520;27.448;2022-12-18T09:56:16;102426.53;;;13.18;72.29
8575;BME280;4325;42.520;27.448;2022-12-18T09:58:49;102429.19;;;13.13;72.22
8575;BME280;4325;42.520;27.448;2022-12-18T10:01:21;102430.75;;;13.09;73.01
8575;BME280;4325;42.520;27.448;2022-12-18T10:03:50;102434.00;;;13.06;73.82
8575;BME280;4325;42.520;27.448;2022-12-18T10:06:21;102444.63;;;13.03;74.83
8575;BME280;4325;42.520;27.448;2022-12-18T10:08:54;102440.94;;;12.97;70.44
8575;BME280;4325;42.520;27.448;2022-12-18T10:11:32;102449.88;;;12.76;71.50
8575;BME280;4325;42.520;27.448;2022-12-18T10:14:08;102448.59;;;12.67;71.44
8575;BME280;4325;42.520;27.448;2022-12-18T10:16:41;102446.81;;;12.61;70.56
8575;BME280;4325;42.520;27.448;2022-12-18T10:19:21;102439.09;;;12.58;71.59
8575;BME280;4325;42.520;27.448;2022-12-18T10:21:57;102441.31;;;12.61;72.01
8575;BME280;4325;42.520;27.448;2022-12-18T10:24:32;102438.19;;;12.69;71.05
8575;BME280;4325;42.520;27.448;2022-12-18T10:27:11;102433.38;;;12.76;70.74
8575;BME280;4325;42.520;27.448;2022-12-18T10:29:41;102441.72;;;12.81;69.56
8575;BME280;4325;42.520;27.448;2022-12-18T10:32:14;102454.91;;;12.79;70.43
8575;BME280;4325;42.520;27.448;2022-12-18T10:34:44;102438.41;;;12.79;69.88
8575;BME280;4325;42.520;27.448;2022-12-18T10:37:16;102448.81;;;12.77;68.98
8575;BME280;4325;42.520;27.448;2022-12-18T10:39:44;102441.72;;;12.81;69.69
8575;BME280;4325;42.520;27.448;2022-12-18T10:42:16;102439.94;;;12.87;69.43
8575;BME280;4325;42.520;27.448;2022-12-18T10:44:45;102442.13;;;13.01;69.86
8575;BME280;4325;42.520;27.448;2022-12-18T10:47:14;102443.16;;;13.12;68.29
8575;BME280;4325;42.520;27.448;2022-12-18T10:49:49;102458.97;;;13.16;68.19
8575;BME280;4325;42.520;27.448;2022-12-18T10:52:19;102468.00;;;13.17;67.32
8575;BME280;4325;42.520;27.448;2022-12-18T10:54:49;102472.34;;;13.13;66.87
8575;BME280;4325;42.520;27.448;2022-12-18T10:57:27;102462.69;;;13.10;67.16
8575;BME280;4325;42.520;27.448;2022-12-18T11:00:21;102454.16;;;13.12;68.16
8575;BME280;4325;42.520;27.448;2022-12-18T11:02:45;102468.84;;;13.17;69.90
8575;BME280;4325;42.520;27.448;2022-12-18T11:05:24;102463.63;;;13.04;70.03
8575;BME280;4325;42.520;27.448;2022-12-18T11:07:52;102464.13;;;13.01;68.82
8575;BME280;4325;42.520;27.448;2022-12-18T11:10:21;102464.63;;;12.98;69.93
8575;BME280;4325;42.520;27.448;2022-12-18T11:12:48;102477.09;;;12.89;69.24
8575;BME280;4325;42.520;27.448;2022-12-18T11:15:20;102486.72;;;12.75;71.16
8575;BME280;4325;42.520;27.448;2022-12-18T11:17:48;102491.00;;;12.71;71.42
8575;BME280;4325;42.520;27.448;2022-12-18T11:20:30;102489.13;;;12.60;70.94
8575;BME280;4325;42.520;27.448;2022-12-18T11:22:59;102474.06;;;12.51;72.09
8575;BME280;4325;42.520;27.448;2022-12-18T11:25:27;102480.81;;;12.43;71.56
8575;BME280;4325;42.520;27.448;2022-12-18T11:27:56;102474.84;;;12.35;73.33
8575;BME280;4325;42.520;27.448;2022-12-18T11:30:26;102481.91;;;12.31;73.25
8575;BME280;4325;42.520;27.448;2022-12-18T11:33:00;102485.25;;;12.21;72.20
8575;BME280;4325;42.520;27.448;2022-12-18T11:35:42;102497.19;;;12.15;71.28
8575;BME280;4325;42.520;27.448;2022-12-18T11:38:18;102506.50;;;12.14;70.94
8575;BME280;4325;42.520;27.448;2022-12-18T11:40:52;102491.69;;;12.04;70.20
8575;BME280;4325;42.520;27.448;2022-12-18T11:43:26;102503.53;;;12.04;69.87
8575;BME280;4325;42.520;27.448;2022-12-18T11:45:58;102504.72;;;11.97;70.16
8575;BME280;4325;42.520;27.448;2022-12-18T11:48:28;102502.31;;;11.88;70.94
8575;BME280;4325;42.520;27.448;2022-12-18T11:50:59;102495.50;;;11.79;71.55
8575;BME280;4325;42.520;27.448;2022-12-18T11:53:27;102504.19;;;11.76;72.98
8575;BME280;4325;42.520;27.448;2022-12-18T11:56:04;102513.22;;;11.65;73.64
8575;BME280;4325;42.520;27.448;2022-12-18T11:58:48;102516.19;;;11.64;74.43
8575;BME280;4325;42.520;27.448;2022-12-18T12:01:28;102515.97;;;11.65;74.31
8575;BME280;4325;42.520;27.448;2022-12-18T12:04:13;102518.72;;;11.65;73.98
8575;BME280;4325;42.520;27.448;2022-12-18T12:06:51;102532.19;;;11.67;73.21
8575;BME280;4325;42.520;27.448;2022-12-18T12:09:24;102535.44;;;11.75;74.23
8575;BME280;4325;42.520;27.448;2022-12-18T12:12:06;102548.72;;;11.78;73.87
8575;BME280;4325;42.520;27.448;2022-12-18T12:14:47;102548.72;;;11.78;74.13
8575;BME280;4325;42.520;27.448;2022-12-18T12:17:25;102544.78;;;11.74;73.58
8575;BME280;4325;42.520;27.448;2022-12-18T12:20:04;102552.75;;;11.76;73.42
8575;BME280;4325;42.520;27.448;2022-12-18T12:22:40;102554.06;;;11.73;74.58
8575;BME280;4325;42.520;27.448;2022-12-18T12:25:23;102551.09;;;11.75;74.96
8575;BME280;4325;42.520;27.448;2022-12-18T12:28:05;102537.25;;;11.70;74.99
8575;BME280;4325;42.520;27.448;2022-12-18T12:30:46;102543.59;;;11.70;75.02
8575;BME280;4325;42.520;27.448;2022-12-18T12:33:29;102556.41;;;11.58;75.80
8575;BME280;4325;42.520;27.448;2022-12-18T12:36:06;102564.63;;;11.58;75.52
8575;BME280;4325;42.520;27.448;2022-12-18T12:38:39;102566.59;;;11.51;75.62
8575;BME280;4325;42.520;27.448;2022-12-18T12:41:10;102567.56;;;11.45;75.61
8575;BME280;4325;42.520;27.448;2022-12-18T12:44:02;102565.13;;;11.37;76.44
8575;BME280;4325;42.520;27.448;2022-12-18T12:46:32;102575.97;;;11.32;76.80
8575;BME280;4325;42.520;27.448;2022-12-18T12:49:03;102579.66;;;11.26;77.99
8575;BME280;4325;42.520;27.448;2022-12-18T12:51:35;102582.38;;;11.26;78.16
8575;BME280;4325;42.520;27.448;2022-12-18T12:54:05;102596.56;;;11.23;77.83
8575;BME280;4325;42.520;27.448;2022-12-18T12:56:39;102601.75;;;11.13;78.16
8575;BME280;4325;42.520;27.448;2022-12-18T12:59:13;102603.88;;;11.11;78.95
8575;BME280;4325;42.520;27.448;2022-12-18T13:01:50;102611.72;;;11.07;79.35
8575;BME280;4325;42.520;27.448;2022-12-18T13:04:27;102620.19;;;11.06;79.40
8575;BME280;4325;42.520;27.448;2022-12-18T13:07:00;102616.22;;;11.02;79.71
8575;BME280;4325;42.520;27.448;2022-12-18T13:09:30;102614.19;;;10.97;80.48
8575;BME280;4325;42.520;27.448;2022-12-18T13:12:02;102620.78;;;10.90;81.63